createdAt,value
2022-09-12T00:00:08.166Z,98615.40
2022-09-12T00:01:04.488Z,98618.13
2022-09-12T00:01:44.876Z,98619.14
2022-09-12T00:02:16.892Z,98617.54
2022-09-12T00:02:55.019Z,98617.33
2022-09-12T00:03:27.316Z,98618.06
2022-09-12T00:04:01.564Z,98620.01
2022-09-12T00:04:34.001Z,98616.20
2022-09-12T00:05:07.098Z,98615.91
2022-09-12T00:05:43.873Z,98616.17
2022-09-12T00:06:23.875Z,98618.66
2022-09-12T00:06:55.799Z,98616.42
2022-09-12T00:07:27.629Z,98615.02
2022-09-12T00:08:00.440Z,98613.59
2022-09-12T00:08:32.148Z,98619.88
2022-09-12T00:09:07.575Z,98616.27
2022-09-12T00:09:39.436Z,98615.42
2022-09-12T00:10:11.160Z,98615.85
2022-09-12T00:10:45.218Z,98615.05
2022-09-12T00:11:17.397Z,98614.77
2022-09-12T00:11:50.130Z,98612.60
2022-09-12T00:12:22.233Z,98614.23
2022-09-12T00:12:54.000Z,98612.28
2022-09-12T00:13:25.785Z,98617.20
2022-09-12T00:14:00.161Z,98615.30
2022-09-12T00:14:32.094Z,98611.44
2022-09-12T00:15:05.826Z,98611.64
2022-09-12T00:15:42.021Z,98611.55
2022-09-12T00:16:20.345Z,98615.45
2022-09-12T00:16:52.123Z,98614.85
2022-09-12T00:17:24.377Z,98613.45
2022-09-12T00:17:56.370Z,98615.50
2022-09-12T00:18:28.141Z,98612.25
2022-09-12T00:19:00.938Z,98614.27
2022-09-12T00:19:32.726Z,98618.01
2022-09-12T00:20:07.850Z,98612.09
2022-09-12T00:20:44.528Z,98611.84
2022-09-12T00:21:17.474Z,98613.34
2022-09-12T00:21:49.132Z,98616.73
2022-09-12T00:22:21.178Z,98615.16
2022-09-12T00:22:53.146Z,98616.08
2022-09-12T00:23:24.969Z,98615.58
2022-09-12T00:23:56.794Z,98617.33
2022-09-12T00:24:28.577Z,98613.80
2022-09-12T00:25:00.429Z,98612.59
2022-09-12T00:25:32.137Z,98615.79
2022-09-12T00:26:05.929Z,98615.17
2022-09-12T00:26:38.040Z,98612.38
2022-09-12T00:27:09.808Z,98615.22
2022-09-12T00:27:41.553Z,98616.09
2022-09-12T00:28:15.484Z,98614.98
2022-09-12T00:28:48.282Z,98613.34
2022-09-12T00:29:21.454Z,98617.36
2022-09-12T00:29:53.176Z,98618.73
2022-09-12T00:30:24.937Z,98615.77
2022-09-12T00:30:56.717Z,98616.91
2022-09-12T00:31:28.668Z,98619.27
2022-09-12T00:32:00.891Z,98619.58
2022-09-12T00:32:33.819Z,98617.83
2022-09-12T00:33:05.722Z,98615.98
2022-09-12T00:33:37.731Z,98616.55
2022-09-12T00:34:10.036Z,98615.29
2022-09-12T00:34:42.056Z,98616.14
2022-09-12T00:35:13.814Z,98613.23
2022-09-12T00:35:55.108Z,98618.26
2022-09-12T00:36:28.838Z,98615.10
2022-09-12T00:37:00.619Z,98614.17
2022-09-12T00:37:32.292Z,98613.05
2022-09-12T00:38:04.023Z,98615.22
2022-09-12T00:38:38.136Z,98616.44
2022-09-12T00:39:14.074Z,98612.38
2022-09-12T00:39:46.205Z,98614.21
2022-09-12T00:40:17.994Z,98614.52
2022-09-12T00:40:50.024Z,98615.05
2022-09-12T00:41:28.527Z,98614.23
2022-09-12T00:42:00.192Z,98615.98
2022-09-12T00:42:32.197Z,98614.08
2022-09-12T00:43:05.436Z,98612.05
2022-09-12T00:43:43.029Z,98612.71
2022-09-12T00:44:14.732Z,98612.98
2022-09-12T00:44:49.730Z,98614.37
2022-09-12T00:45:29.248Z,98612.15
2022-09-12T00:46:10.180Z,98611.15
2022-09-12T00:46:48.421Z,98613.43
2022-09-12T00:47:27.609Z,98612.05
2022-09-12T00:48:04.115Z,98609.54
2022-09-12T00:48:43.579Z,98608.40
2022-09-12T00:49:29.391Z,98609.17
2022-09-12T00:50:08.951Z,98604.51
2022-09-12T00:50:40.669Z,98605.73
2022-09-12T00:51:13.890Z,98605.64
2022-09-12T00:51:53.986Z,98604.43
2022-09-12T00:52:30.332Z,98604.61
2022-09-12T00:53:06.369Z,98607.80
2022-09-12T00:53:40.964Z,98605.72
2022-09-12T00:54:16.682Z,98601.02
2022-09-12T00:54:57.756Z,98605.40
2022-09-12T00:55:39.049Z,98604.27
2022-09-12T00:56:13.203Z,98602.99
2022-09-12T00:56:47.375Z,98606.05
2022-09-12T00:57:22.997Z,98601.95
2022-09-12T00:58:03.410Z,98603.16
2022-09-12T00:58:47.685Z,98605.52
2022-09-12T00:59:24.340Z,98601.79
2022-09-12T01:00:01.327Z,98602.89
2022-09-12T01:00:33.336Z,98604.05
2022-09-12T01:01:05.916Z,98603.65
2022-09-12T01:01:39.875Z,98600.16
2022-09-12T01:02:11.917Z,98604.30
2022-09-12T01:02:48.644Z,98603.25
2022-09-12T01:03:22.806Z,98604.95
2022-09-12T01:03:54.611Z,98603.73
2022-09-12T01:04:28.530Z,98605.44
2022-09-12T01:05:00.333Z,98603.13
2022-09-12T01:05:36.325Z,98607.80
2022-09-12T01:06:29.837Z,98608.92
2022-09-12T01:07:04.901Z,98605.98
2022-09-12T01:07:40.189Z,98605.03
2022-09-12T01:08:12.801Z,98606.24
2022-09-12T01:08:47.195Z,98610.09
2022-09-12T01:09:22.759Z,98605.61
2022-09-12T01:09:55.134Z,98605.67
2022-09-12T01:10:27.051Z,98605.98
2022-09-12T01:10:59.213Z,98605.77
2022-09-12T01:11:37.105Z,98608.11
2022-09-12T01:12:09.765Z,98603.09
2022-09-12T01:12:43.290Z,98606.86
2022-09-12T01:13:15.443Z,98610.46
2022-09-12T01:13:48.625Z,98601.02
2022-09-12T01:14:20.984Z,98605.10
2022-09-12T01:14:52.685Z,98603.94
2022-09-12T01:15:24.599Z,98605.60
2022-09-12T01:15:56.531Z,98601.30
2022-09-12T01:16:29.191Z,98602.23
2022-09-12T01:17:01.384Z,98608.12
2022-09-12T01:17:43.877Z,98603.56
2022-09-12T01:18:18.592Z,98607.66
2022-09-12T01:19:05.378Z,98607.05
2022-09-12T01:20:17.631Z,98609.36
2022-09-12T01:21:07.477Z,98612.96
2022-09-12T01:22:13.399Z,98608.27
2022-09-12T01:23:21.932Z,98611.21
2022-09-12T01:24:25.895Z,98615.42
2022-09-12T01:25:03.986Z,98618.02
2022-09-12T01:25:38.501Z,98615.88
2022-09-12T01:26:22.105Z,98618.51
2022-09-12T01:27:20.672Z,98611.66
2022-09-12T01:28:26.415Z,98613.69
2022-09-12T01:29:19.692Z,98614.75
2022-09-12T01:30:19.573Z,98611.53
2022-09-12T01:31:00.508Z,98612.79
2022-09-12T01:32:21.870Z,98612.91
2022-09-12T01:33:05.977Z,98615.57
2022-09-12T01:33:58.048Z,98613.46
2022-09-12T01:34:53.026Z,98615.73
2022-09-12T01:35:45.481Z,98616.50
2022-09-12T01:36:17.131Z,98613.50
2022-09-12T01:37:03.527Z,98618.17
2022-09-12T01:37:59.097Z,98613.50
2022-09-12T01:38:34.290Z,98615.23
2022-09-12T01:39:19.625Z,98613.61
2022-09-12T01:40:31.094Z,98618.68
2022-09-12T01:41:26.681Z,98615.80
2022-09-12T01:42:16.331Z,98614.78
2022-09-12T01:43:10.939Z,98609.39
2022-09-12T01:43:50.695Z,98613.41
2022-09-12T01:44:22.622Z,98614.47
2022-09-12T01:45:03.981Z,98608.59
2022-09-12T01:45:49.271Z,98614.42
2022-09-12T01:46:39.875Z,98613.08
2022-09-12T01:47:20.875Z,98612.39
2022-09-12T01:47:58.329Z,98612.48
2022-09-12T01:48:36.591Z,98614.90
2022-09-12T01:50:04.834Z,98610.15
2022-09-12T01:50:43.949Z,98614.70
2022-09-12T01:51:29.412Z,98610.77
2022-09-12T01:52:27.539Z,98609.78
2022-09-12T01:53:06.300Z,98608.10
2022-09-12T01:53:44.630Z,98608.55
2022-09-12T01:54:26.989Z,98610.30
2022-09-12T01:55:15.280Z,98611.76
2022-09-12T01:56:08.552Z,98608.20
2022-09-12T01:56:43.770Z,98609.87
2022-09-12T01:57:27.351Z,98608.38
2022-09-12T01:58:02.732Z,98609.70
2022-09-12T01:58:50.827Z,98608.16
2022-09-12T01:59:43.958Z,98608.12
2022-09-12T02:00:16.623Z,98608.55
2022-09-12T02:01:23.916Z,98611.05
2022-09-12T02:02:02.720Z,98611.29
2022-09-12T02:02:39.741Z,98613.42
2022-09-12T02:03:20.137Z,98614.20
2022-09-12T02:04:01.242Z,98612.78
2022-09-12T02:04:51.141Z,98615.66
2022-09-12T02:05:40.043Z,98615.02
2022-09-12T02:06:20.536Z,98614.00
2022-09-12T02:06:59.659Z,98616.11
2022-09-12T02:07:43.236Z,98612.95
2022-09-12T02:08:24.060Z,98611.41
2022-09-12T02:09:03.661Z,98610.42
2022-09-12T02:09:40.453Z,98609.63
2022-09-12T02:10:13.954Z,98608.71
2022-09-12T02:11:04.294Z,98608.70
2022-09-12T02:11:41.235Z,98613.90
2022-09-12T02:12:18.123Z,98606.94
2022-09-12T02:12:56.179Z,98607.87
2022-09-12T02:13:36.930Z,98606.98
2022-09-12T02:14:31.368Z,98607.70
2022-09-12T02:15:07.869Z,98607.02
2022-09-12T02:15:55.161Z,98606.23
2022-09-12T02:16:53.036Z,98608.30
2022-09-12T02:17:26.140Z,98604.61
2022-09-12T02:18:01.665Z,98608.25
2022-09-12T02:18:37.862Z,98607.98
2022-09-12T02:19:17.669Z,98607.61
2022-09-12T02:19:54.932Z,98610.77
2022-09-12T02:20:48.325Z,98608.66
2022-09-12T02:21:24.242Z,98610.57
2022-09-12T02:21:59.809Z,98608.96
2022-09-12T02:22:34.799Z,98610.62
2022-09-12T02:23:12.273Z,98608.83
2022-09-12T02:23:48.762Z,98609.39
2022-09-12T02:24:24.436Z,98611.45
2022-09-12T02:25:00.266Z,98612.39
2022-09-12T02:25:36.084Z,98615.80
2022-09-12T02:26:23.070Z,98616.21
2022-09-12T02:26:59.960Z,98617.59
2022-09-12T02:27:44.344Z,98617.83
2022-09-12T02:28:25.693Z,98618.71
2022-09-12T02:28:57.629Z,98613.08
2022-09-12T02:29:29.890Z,98615.23
2022-09-12T02:30:01.776Z,98617.83
2022-09-12T02:30:42.857Z,98616.27
2022-09-12T02:31:23.462Z,98615.97
2022-09-12T02:32:27.388Z,98610.34
2022-09-12T02:33:14.844Z,98607.25
2022-09-12T02:34:14.288Z,98606.83
2022-09-12T02:35:08.359Z,98607.45
2022-09-12T02:35:57.843Z,98600.69
2022-09-12T02:36:32.935Z,98597.36
2022-09-12T02:37:23.301Z,98593.27
2022-09-12T02:38:01.869Z,98597.73
2022-09-12T02:38:51.708Z,98597.23
2022-09-12T02:39:24.223Z,98594.27
2022-09-12T02:39:57.541Z,98593.49
2022-09-12T02:40:30.739Z,98590.84
2022-09-12T02:41:02.476Z,98588.78
2022-09-12T02:41:34.260Z,98590.08
2022-09-12T02:42:06.312Z,98587.09
2022-09-12T02:42:38.119Z,98586.64
2022-09-12T02:43:10.559Z,98581.83
2022-09-12T02:43:42.409Z,98585.86
2022-09-12T02:44:14.250Z,98584.16
2022-09-12T02:44:46.359Z,98581.74
2022-09-12T02:45:18.527Z,98585.44
2022-09-12T02:45:50.684Z,98582.67
2022-09-12T02:46:38.201Z,98582.36
2022-09-12T02:47:17.821Z,98583.25
2022-09-12T02:47:57.148Z,98581.79
2022-09-12T02:48:34.164Z,98583.65
2022-09-12T02:49:05.958Z,98585.40
2022-09-12T02:49:38.237Z,98582.37
2022-09-12T02:50:11.300Z,98585.34
2022-09-12T02:50:43.657Z,98590.93
2022-09-12T02:51:19.223Z,98588.95
2022-09-12T02:51:53.380Z,98588.38
2022-09-12T02:52:27.469Z,98593.30
2022-09-12T02:53:04.288Z,98592.48
2022-09-12T02:53:36.687Z,98590.29
2022-09-12T02:54:09.900Z,98592.89
2022-09-12T02:54:43.588Z,98595.19
2022-09-12T02:55:16.809Z,98593.13
2022-09-12T02:55:49.129Z,98594.94
2022-09-12T02:56:27.886Z,98595.46
2022-09-12T02:56:59.662Z,98593.91
2022-09-12T02:57:31.705Z,98595.90
2022-09-12T02:58:06.947Z,98596.10
2022-09-12T02:58:38.745Z,98598.20
2022-09-12T02:59:15.180Z,98596.98
2022-09-12T02:59:48.318Z,98597.80
2022-09-12T03:00:20.214Z,98602.20
2022-09-12T03:01:15.123Z,98594.55
2022-09-12T03:01:56.600Z,98603.86
2022-09-12T03:02:57.507Z,98593.77
2022-09-12T03:03:51.705Z,98596.73
2022-09-12T03:05:12.808Z,98598.33
2022-09-12T03:06:15.989Z,98598.20
2022-09-12T03:06:50.365Z,98594.92
2022-09-12T03:07:51.839Z,98597.41
2022-09-12T03:08:32.558Z,98599.98
2022-09-12T03:09:38.546Z,98596.96
2022-09-12T03:10:24.092Z,98601.36
2022-09-12T03:11:36.949Z,98599.95
2022-09-12T03:12:52.832Z,98599.59
2022-09-12T03:13:30.504Z,98600.65
2022-09-12T03:14:27.370Z,98607.69
2022-09-12T03:15:08.533Z,98604.25
2022-09-12T03:15:52.683Z,98608.10
2022-09-12T03:16:36.512Z,98609.71
2022-09-12T03:17:26.578Z,98610.41
2022-09-12T03:18:07.632Z,98604.45
2022-09-12T03:18:58.067Z,98608.13
2022-09-12T03:19:51.839Z,98609.05
2022-09-12T03:20:50.765Z,98610.30
2022-09-12T03:21:42.111Z,98607.33
2022-09-12T03:22:27.611Z,98612.48
2022-09-12T03:23:05.423Z,98611.46
2022-09-12T03:23:47.331Z,98608.86
2022-09-12T03:25:04.155Z,98616.84
2022-09-12T03:25:43.712Z,98614.05
2022-09-12T03:26:20.495Z,98615.64
2022-09-12T03:26:58.248Z,98612.67
2022-09-12T03:27:32.578Z,98615.58
2022-09-12T03:28:15.786Z,98611.59
2022-09-12T03:28:49.059Z,98613.05
2022-09-12T03:29:23.815Z,98611.80
2022-09-12T03:29:56.122Z,98612.38
2022-09-12T03:30:28.352Z,98614.90
2022-09-12T03:31:00.229Z,98612.55
2022-09-12T03:31:32.231Z,98613.72
2022-09-12T03:32:04.364Z,98612.45
2022-09-12T03:32:51.319Z,98615.89
2022-09-12T03:33:25.197Z,98618.02
2022-09-12T03:33:56.988Z,98609.88
2022-09-12T03:34:28.658Z,98615.39
2022-09-12T03:35:00.364Z,98612.80
2022-09-12T03:35:32.133Z,98613.58
2022-09-12T03:36:03.994Z,98612.42
2022-09-12T03:36:35.759Z,98608.48
2022-09-12T03:37:07.596Z,98616.38
2022-09-12T03:37:40.105Z,98612.01
2022-09-12T03:38:11.885Z,98609.98
2022-09-12T03:38:43.726Z,98613.55
2022-09-12T03:39:16.153Z,98613.26
2022-09-12T03:39:47.862Z,98614.16
2022-09-12T03:40:19.938Z,98618.92
2022-09-12T03:40:54.871Z,98613.83
2022-09-12T03:41:27.275Z,98620.44
2022-09-12T03:41:59.033Z,98619.48
2022-09-12T03:42:31.150Z,98617.81
2022-09-12T03:43:04.803Z,98614.77
2022-09-12T03:43:36.652Z,98611.46
2022-09-12T03:44:08.812Z,98616.52
2022-09-12T03:44:40.580Z,98613.29
2022-09-12T03:45:12.283Z,98620.15
2022-09-12T03:45:43.969Z,98617.30
2022-09-12T03:46:15.761Z,98613.34
2022-09-12T03:46:47.669Z,98614.68
2022-09-12T03:47:19.398Z,98615.41
2022-09-12T03:47:51.061Z,98612.86
2022-09-12T03:48:22.754Z,98610.39
2022-09-12T03:48:54.584Z,98614.08
2022-09-12T03:49:26.328Z,98612.70
2022-09-12T03:49:58.120Z,98611.23
2022-09-12T03:50:29.966Z,98611.10
2022-09-12T03:51:03.822Z,98613.19
2022-09-12T03:51:35.528Z,98612.45
2022-09-12T03:52:07.555Z,98616.17
2022-09-12T03:52:39.216Z,98614.14
2022-09-12T03:53:14.074Z,98615.62
2022-09-12T03:53:48.889Z,98615.14
2022-09-12T03:54:20.701Z,98618.86
2022-09-12T03:54:52.631Z,98612.83
2022-09-12T03:55:26.387Z,98615.42
2022-09-12T03:55:58.849Z,98619.27
2022-09-12T03:56:31.093Z,98616.77
2022-09-12T03:57:02.969Z,98616.60
2022-09-12T03:57:34.712Z,98616.11
2022-09-12T03:58:06.924Z,98615.80
2022-09-12T03:58:38.993Z,98616.95
2022-09-12T03:59:11.260Z,98614.60
2022-09-12T03:59:43.336Z,98621.27
2022-09-12T04:00:19.555Z,98616.90
2022-09-12T04:00:51.819Z,98620.06
2022-09-12T04:01:24.154Z,98618.61
2022-09-12T04:01:56.095Z,98615.40
2022-09-12T04:02:28.911Z,98624.40
2022-09-12T04:03:00.601Z,98619.53
2022-09-12T04:03:32.299Z,98621.62
2022-09-12T04:04:04.081Z,98623.88
2022-09-12T04:04:35.898Z,98622.25
2022-09-12T04:05:08.066Z,98624.00
2022-09-12T04:05:39.903Z,98628.53
2022-09-12T04:06:14.868Z,98624.52
2022-09-12T04:06:46.550Z,98629.91
2022-09-12T04:07:18.250Z,98628.16
2022-09-12T04:07:50.619Z,98627.27
2022-09-12T04:08:22.385Z,98629.45
2022-09-12T04:08:55.202Z,98626.90
2022-09-12T04:09:27.087Z,98627.27
2022-09-12T04:09:58.784Z,98630.14
2022-09-12T04:10:31.688Z,98628.23
2022-09-12T04:11:08.623Z,98626.82
2022-09-12T04:11:40.535Z,98634.75
2022-09-12T04:12:13.605Z,98630.45
2022-09-12T04:12:45.403Z,98633.04
2022-09-12T04:13:17.180Z,98634.09
2022-09-12T04:13:50.266Z,98634.21
2022-09-12T04:14:22.268Z,98634.21
2022-09-12T04:14:54.163Z,98635.63
2022-09-12T04:15:25.835Z,98631.91
2022-09-12T04:15:59.118Z,98634.86
2022-09-12T04:16:31.899Z,98634.23
2022-09-12T04:17:03.997Z,98639.53
2022-09-12T04:17:35.988Z,98639.00
2022-09-12T04:18:07.742Z,98640.55
2022-09-12T04:18:39.870Z,98638.52
2022-09-12T04:19:11.796Z,98640.66
2022-09-12T04:19:43.675Z,98640.17
2022-09-12T04:20:15.615Z,98639.00
2022-09-12T04:20:47.371Z,98639.31
2022-09-12T04:21:21.489Z,98641.52
2022-09-12T04:21:54.259Z,98643.61
2022-09-12T04:22:26.561Z,98643.33
2022-09-12T04:22:58.895Z,98643.38
2022-09-12T04:23:31.071Z,98641.52
2022-09-12T04:24:04.080Z,98645.60
2022-09-12T04:24:35.847Z,98645.36
2022-09-12T04:25:09.099Z,98647.86
2022-09-12T04:25:41.155Z,98643.42
2022-09-12T04:26:13.961Z,98644.90
2022-09-12T04:26:45.918Z,98645.74
2022-09-12T04:27:17.728Z,98650.04
2022-09-12T04:27:49.505Z,98648.38
2022-09-12T04:28:21.716Z,98648.86
2022-09-12T04:28:57.146Z,98645.25
2022-09-12T04:29:29.605Z,98652.84
2022-09-12T04:30:01.884Z,98654.96
2022-09-12T04:30:34.408Z,98652.12
2022-09-12T04:31:09.224Z,98651.71
2022-09-12T04:31:41.816Z,98650.42
2022-09-12T04:32:14.659Z,98650.46
2022-09-12T04:32:46.347Z,98653.52
2022-09-12T04:33:18.469Z,98655.52
2022-09-12T04:33:56.478Z,98653.92
2022-09-12T04:34:31.734Z,98655.14
2022-09-12T04:35:04.522Z,98657.12
2022-09-12T04:35:36.715Z,98654.81
2022-09-12T04:36:11.595Z,98657.93
2022-09-12T04:36:43.421Z,98656.92
2022-09-12T04:37:16.444Z,98658.83
2022-09-12T04:37:48.259Z,98658.08
2022-09-12T04:38:20.025Z,98658.08
2022-09-12T04:38:52.822Z,98658.73
2022-09-12T04:39:24.949Z,98654.99
2022-09-12T04:39:58.790Z,98658.45
2022-09-12T04:40:31.089Z,98656.71
2022-09-12T04:41:11.973Z,98657.92
2022-09-12T04:41:43.735Z,98658.85
2022-09-12T04:42:16.155Z,98658.29
2022-09-12T04:42:48.040Z,98659.02
2022-09-12T04:43:20.120Z,98658.85
2022-09-12T04:43:54.431Z,98659.83
2022-09-12T04:44:26.727Z,98658.41
2022-09-12T04:44:58.649Z,98661.17
2022-09-12T04:45:30.252Z,98661.38
2022-09-12T04:46:10.837Z,98656.23
2022-09-12T04:46:45.578Z,98658.05
2022-09-12T04:47:18.399Z,98657.00
2022-09-12T04:47:50.222Z,98656.23
2022-09-12T04:48:22.065Z,98660.69
2022-09-12T04:48:57.065Z,98658.28
2022-09-12T04:49:29.051Z,98657.02
2022-09-12T04:50:00.794Z,98657.41
2022-09-12T04:50:32.635Z,98655.17
2022-09-12T04:51:13.452Z,98657.92
2022-09-12T04:51:45.802Z,98661.08
2022-09-12T04:52:17.869Z,98661.98
2022-09-12T04:52:54.613Z,98658.58
2022-09-12T04:53:26.424Z,98660.52
2022-09-12T04:54:01.235Z,98659.67
2022-09-12T04:54:33.880Z,98661.78
2022-09-12T04:55:06.395Z,98656.27
2022-09-12T04:55:38.334Z,98663.96
2022-09-12T04:56:11.122Z,98659.67
2022-09-12T04:56:45.511Z,98660.88
2022-09-12T04:57:17.235Z,98660.70
2022-09-12T04:57:49.394Z,98663.48
2022-09-12T04:58:21.038Z,98665.58
2022-09-12T04:58:52.923Z,98670.61
2022-09-12T04:59:24.783Z,98665.30
2022-09-12T04:59:56.542Z,98669.52
2022-09-12T05:00:28.860Z,98667.89
2022-09-12T05:01:09.427Z,98669.71
2022-09-12T05:01:41.648Z,98670.29
2022-09-12T05:02:13.435Z,98671.73
2022-09-12T05:02:45.559Z,98668.83
2022-09-12T05:03:17.719Z,98671.67
2022-09-12T05:03:50.656Z,98670.95
2022-09-12T05:04:22.570Z,98670.86
2022-09-12T05:04:54.306Z,98673.17
2022-09-12T05:05:26.364Z,98671.27
2022-09-12T05:05:58.382Z,98672.98
2022-09-12T05:06:34.037Z,98672.54
2022-09-12T05:07:06.181Z,98671.29
2022-09-12T05:07:38.001Z,98672.17
2022-09-12T05:08:09.972Z,98673.35
2022-09-12T05:08:42.380Z,98674.68
2022-09-12T05:09:15.485Z,98677.65
2022-09-12T05:09:47.346Z,98673.35
2022-09-12T05:10:19.345Z,98672.89
2022-09-12T05:10:51.085Z,98678.15
2022-09-12T05:11:46.706Z,98676.16
2022-09-12T05:12:21.143Z,98678.27
2022-09-12T05:12:53.468Z,98676.77
2022-09-12T05:13:26.896Z,98676.52
2022-09-12T05:13:59.535Z,98677.05
2022-09-12T05:14:32.533Z,98676.52
2022-09-12T05:15:05.374Z,98675.88
2022-09-12T05:15:37.234Z,98677.42
2022-09-12T05:16:11.574Z,98675.82
2022-09-12T05:16:47.219Z,98677.81
2022-09-12T05:17:20.987Z,98677.77
2022-09-12T05:17:52.937Z,98680.20
2022-09-12T05:18:26.390Z,98680.37
2022-09-12T05:18:59.046Z,98682.64
2022-09-12T05:19:31.316Z,98677.50
2022-09-12T05:20:03.650Z,98682.52
2022-09-12T05:20:35.691Z,98676.05
2022-09-12T05:21:10.319Z,98681.30
2022-09-12T05:21:42.106Z,98679.41
2022-09-12T05:22:14.005Z,98682.16
2022-09-12T05:22:45.880Z,98682.20
2022-09-12T05:23:17.706Z,98685.80
2022-09-12T05:23:59.625Z,98689.94
2022-09-12T05:24:32.485Z,98684.23
2022-09-12T05:25:05.345Z,98684.17
2022-09-12T05:25:37.143Z,98686.20
2022-09-12T05:26:13.685Z,98687.34
2022-09-12T05:26:45.774Z,98689.05
2022-09-12T05:27:17.696Z,98689.50
2022-09-12T05:27:52.858Z,98686.72
2022-09-12T05:28:28.852Z,98686.30
2022-09-12T05:29:00.718Z,98694.23
2022-09-12T05:29:33.741Z,98696.35
2022-09-12T05:30:06.375Z,98695.95
2022-09-12T05:30:38.055Z,98697.48
2022-09-12T05:31:19.764Z,98694.33
2022-09-12T05:31:52.643Z,98697.40
2022-09-12T05:32:24.663Z,98695.14
2022-09-12T05:32:56.859Z,98695.74
2022-09-12T05:33:29.515Z,98695.54
2022-09-12T05:34:04.223Z,98697.81
2022-09-12T05:34:37.599Z,98695.77
2022-09-12T05:35:09.342Z,98698.24
2022-09-12T05:35:41.436Z,98693.98
2022-09-12T05:36:17.345Z,98696.71
2022-09-12T05:36:49.224Z,98691.08
2022-09-12T05:37:21.219Z,98694.52
2022-09-12T05:37:53.137Z,98696.55
2022-09-12T05:38:25.765Z,98697.27
2022-09-12T05:38:59.673Z,98697.16
2022-09-12T05:39:31.721Z,98698.78
2022-09-12T05:40:07.232Z,98695.77
2022-09-12T05:40:39.129Z,98696.67
2022-09-12T05:41:18.203Z,98700.52
2022-09-12T05:41:51.466Z,98695.31
2022-09-12T05:42:23.307Z,98701.89
2022-09-12T05:42:55.060Z,98700.84
2022-09-12T05:43:26.842Z,98701.00
2022-09-12T05:44:04.483Z,98701.30
2022-09-12T05:44:36.572Z,98701.45
2022-09-12T05:45:08.656Z,98705.83
2022-09-12T05:45:41.106Z,98704.96
2022-09-12T05:46:18.642Z,98699.63
2022-09-12T05:46:50.973Z,98702.54
2022-09-12T05:47:23.372Z,98697.31
2022-09-12T05:47:55.343Z,98700.95
2022-09-12T05:48:28.087Z,98697.15
2022-09-12T05:49:04.343Z,98697.77
2022-09-12T05:49:36.702Z,98698.33
2022-09-12T05:50:10.625Z,98695.77
2022-09-12T05:50:43.313Z,98696.99
2022-09-12T05:51:20.755Z,98697.41
2022-09-12T05:51:52.537Z,98700.36
2022-09-12T05:52:24.418Z,98698.09
2022-09-12T05:52:59.221Z,98698.48
2022-09-12T05:53:31.445Z,98699.19
2022-09-12T05:54:04.942Z,98698.77
2022-09-12T05:54:36.793Z,98703.55
2022-09-12T05:55:09.214Z,98701.93
2022-09-12T05:55:41.512Z,98699.05
2022-09-12T05:56:19.047Z,98699.36
2022-09-12T05:56:50.832Z,98700.46
2022-09-12T05:57:22.604Z,98699.45
2022-09-12T05:57:54.718Z,98699.23
2022-09-12T05:58:26.405Z,98700.61
2022-09-12T05:59:01.694Z,98696.77
2022-09-12T05:59:33.771Z,98694.55
2022-09-12T06:00:09.260Z,98695.60
2022-09-12T06:00:41.024Z,98696.25
2022-09-12T06:01:18.464Z,98698.25
2022-09-12T06:01:50.300Z,98697.88
2022-09-12T06:02:22.836Z,98694.70
2022-09-12T06:02:54.917Z,98693.52
2022-09-12T06:03:26.710Z,98693.19
2022-09-12T06:04:00.495Z,98693.55
2022-09-12T06:04:32.397Z,98696.71
2022-09-12T06:05:04.536Z,98693.67
2022-09-12T06:05:36.324Z,98695.21
2022-09-12T06:06:08.940Z,98689.38
2022-09-12T06:06:44.565Z,98692.56
2022-09-12T06:07:16.448Z,98693.38
2022-09-12T06:07:48.356Z,98693.98
2022-09-12T06:08:20.317Z,98693.94
2022-09-12T06:08:55.518Z,98696.82
2022-09-12T06:09:27.789Z,98696.58
2022-09-12T06:09:59.681Z,98695.92
2022-09-12T06:10:31.737Z,98697.84
2022-09-12T06:11:05.613Z,98695.81
2022-09-12T06:11:40.577Z,98696.38
2022-09-12T06:12:13.280Z,98694.14
2022-09-12T06:12:45.234Z,98697.39
2022-09-12T06:13:16.998Z,98696.98
2022-09-12T06:13:48.877Z,98698.23
2022-09-12T06:14:21.926Z,98694.31
2022-09-12T06:14:53.719Z,98696.73
2022-09-12T06:15:25.523Z,98698.02
2022-09-12T06:16:11.877Z,98696.13
2022-09-12T06:16:44.750Z,98696.12
2022-09-12T06:17:16.607Z,98694.09
2022-09-12T06:17:51.373Z,98698.17
2022-09-12T06:18:23.497Z,98698.21
2022-09-12T06:18:57.672Z,98699.64
2022-09-12T06:19:29.657Z,98698.83
2022-09-12T06:20:01.854Z,98698.65
2022-09-12T06:20:36.471Z,98700.27
2022-09-12T06:21:10.506Z,98702.48
2022-09-12T06:21:43.303Z,98706.17
2022-09-12T06:22:15.222Z,98701.02
2022-09-12T06:22:47.691Z,98703.10
2022-09-12T06:23:19.597Z,98704.05
2022-09-12T06:23:54.037Z,98704.45
2022-09-12T06:24:25.856Z,98707.48
2022-09-12T06:24:58.159Z,98703.64
2022-09-12T06:25:30.142Z,98705.17
2022-09-12T06:26:03.860Z,98707.52
2022-09-12T06:26:36.030Z,98707.89
2022-09-12T06:27:08.140Z,98708.53
2022-09-12T06:27:40.311Z,98706.53
2022-09-12T06:28:12.037Z,98709.97
2022-09-12T06:28:45.016Z,98709.20
2022-09-12T06:29:17.050Z,98713.17
2022-09-12T06:29:48.881Z,98713.91
2022-09-12T06:30:25.240Z,98714.59
2022-09-12T06:31:05.860Z,98713.95
2022-09-12T06:31:40.929Z,98716.27
2022-09-12T06:32:12.787Z,98713.52
2022-09-12T06:32:45.352Z,98720.48
2022-09-12T06:33:17.772Z,98719.73
2022-09-12T06:33:51.509Z,98716.84
2022-09-12T06:34:23.344Z,98721.95
2022-09-12T06:34:55.992Z,98720.34
2022-09-12T06:35:28.106Z,98718.13
2022-09-12T06:36:12.208Z,98719.09
2022-09-12T06:36:47.312Z,98722.94
2022-09-12T06:37:19.710Z,98722.42
2022-09-12T06:37:51.446Z,98720.14
2022-09-12T06:38:23.349Z,98720.83
2022-09-12T06:38:57.434Z,98724.77
2022-09-12T06:39:31.110Z,98722.08
2022-09-12T06:40:03.288Z,98724.59
2022-09-12T06:40:43.539Z,98726.16
2022-09-12T06:41:15.708Z,98726.63
2022-09-12T06:41:49.324Z,98728.75
2022-09-12T06:42:21.999Z,98722.80
2022-09-12T06:42:54.093Z,98726.77
2022-09-12T06:43:28.185Z,98725.36
2022-09-12T06:44:00.685Z,98725.04
2022-09-12T06:44:32.715Z,98728.64
2022-09-12T06:45:04.881Z,98726.09
2022-09-12T06:45:36.648Z,98724.76
2022-09-12T06:46:10.014Z,98727.91
2022-09-12T06:46:42.024Z,98730.28
2022-09-12T06:47:14.024Z,98731.60
2022-09-12T06:47:45.848Z,98732.94
2022-09-12T06:48:17.612Z,98728.88
2022-09-12T06:48:50.209Z,98730.27
2022-09-12T06:49:22.042Z,98732.67
2022-09-12T06:49:53.826Z,98733.20
2022-09-12T06:50:26.481Z,98732.27
2022-09-12T06:51:11.038Z,98733.11
2022-09-12T06:51:43.062Z,98735.71
2022-09-12T06:52:15.051Z,98737.85
2022-09-12T06:52:49.378Z,98733.35
2022-09-12T06:53:21.238Z,98737.36
2022-09-12T06:53:56.739Z,98731.05
2022-09-12T06:54:28.553Z,98734.48
2022-09-12T06:55:00.315Z,98733.73
2022-09-12T06:55:33.450Z,98735.46
2022-09-12T06:56:08.955Z,98735.55
2022-09-12T06:56:41.322Z,98736.20
2022-09-12T06:57:13.202Z,98735.59
2022-09-12T06:57:45.151Z,98732.44
2022-09-12T06:58:17.031Z,98736.36
2022-09-12T06:58:51.090Z,98735.99
2022-09-12T06:59:22.894Z,98739.74
2022-09-12T06:59:54.728Z,98736.34
2022-09-12T07:00:26.625Z,98735.41
2022-09-12T07:01:03.392Z,98737.00
2022-09-12T07:01:36.656Z,98735.84
2022-09-12T07:02:09.577Z,98734.58
2022-09-12T07:02:41.519Z,98738.95
2022-09-12T07:03:13.464Z,98741.09
2022-09-12T07:03:53.720Z,98735.06